Time;durP1;ratioP1;P1;durP2;ratioP2;P2;SDS_P1;SDS_P2;PMS_P1;PMS_P2;Temp;Humidity;BMP_temperature;BMP_pressure;BME280_temperature;BME280_humidity;BME280_pressure;Samples;Min_cycle;Max_cycle;Signal;HPM_P1;HPM_P2
2022/06/16 00:00:57;;;;;;;2.78;1.30;;;;;;;;;;5005188;28;20086;-82
2022/06/16 00:03:23;;;;;;;2.80;1.25;;;;;;;;;;5015686;28;20082;-80
2022/06/16 00:05:49;;;;;;;3.47;1.40;;;;;;;;;;5018767;28;21163;-81
2022/06/16 00:08:16;;;;;;;3.05;1.30;;;;;;;;;;5009304;28;20236;-81
2022/06/16 00:13:29;;;;;;;3.17;1.20;;;;;;;;;;5017414;28;20056;-82
2022/06/16 00:15:54;;;;;;;3.08;1.00;;;;;;;;;;5016186;28;20044;-81
2022/06/16 00:18:19;;;;;;;2.40;1.15;;;;;;;;;;5021561;28;20497;-81
2022/06/16 00:20:45;;;;;;;2.40;1.20;;;;;;;;;;5005628;28;20565;-81
2022/06/16 00:23:10;;;;;;;3.55;1.23;;;;;;;;;;5006402;28;20036;-81
2022/06/16 00:25:36;;;;;;;2.67;1.17;;;;;;;;;;5011883;28;20148;-80
2022/06/16 00:28:01;;;;;;;2.30;1.02;;;;;;;;;;4999879;28;20037;-81
2022/06/16 00:30:26;;;;;;;2.45;1.10;;;;;;;;;;4979675;28;20103;-81
2022/06/16 00:32:52;;;;;;;2.47;1.10;;;;;;;;;;5021405;28;20866;-82
2022/06/16 00:35:17;;;;;;;2.65;0.90;;;;;;;;;;5011344;28;20045;-81
2022/06/16 00:37:42;;;;;;;3.17;1.42;;;;;;;;;;5018077;28;20030;-81
2022/06/16 00:40:09;;;;;;;2.47;1.20;;;;;;;;;;5003727;28;20562;-81
2022/06/16 00:42:35;;;;;;;2.17;1.02;;;;;;;;;;5026241;28;20480;-81
2022/06/16 00:45:00;;;;;;;2.58;1.08;;;;;;;;;;5012947;28;20064;-81
2022/06/16 00:47:28;;;;;;;2.45;1.08;;;;;;;;;;5028837;28;20044;-81
2022/06/16 00:49:56;;;;;;;1.95;1.00;;;;;;;;;;5022536;28;20393;-83
2022/06/16 00:52:22;;;;;;;;;;;;;;;;;;5003072;28;20040;-81
2022/06/16 00:55:02;;;;;;;4.45;1.80;;;;;;;;;;5011817;28;20293;-82
2022/06/16 00:57:36;;;;;;;3.83;1.30;;;;;;;;;;5041675;28;20044;-81
2022/06/16 01:00:09;;;;;;;2.47;0.90;;;;;;;;;;4995813;28;20041;-81
2022/06/16 01:02:35;;;;;;;3.13;1.10;;;;;;;;;;5006476;28;20127;-81
2022/06/16 01:05:00;;;;;;;3.22;1.40;;;;;;;;;;5038296;28;20133;-80
2022/06/16 01:07:30;;;;;;;2.95;1.42;;;;;;;;;;5024282;28;20032;-81
2022/06/16 01:09:57;;;;;;;3.00;1.20;;;;;;;;;;5005060;28;20032;-81
2022/06/16 01:15:40;;;;;;;2.80;1.00;;;;;;;;;;5038009;28;20044;-82
2022/06/16 01:18:16;;;;;;;1.98;1.00;;;;;;;;;;5042057;28;20041;-81
2022/06/16 01:21:05;;;;;;;2.95;1.30;;;;;;;;;;5018707;28;20118;-81
2022/06/16 01:23:39;;;;;;;2.25;1.15;;;;;;;;;;5019721;28;20037;-81
2022/06/16 01:26:24;;;;;;;2.35;1.30;;;;;;;;;;5036382;28;20041;-80
2022/06/16 01:29:01;;;;;;;2.47;1.20;;;;;;;;;;5025338;28;20061;-81
2022/06/16 01:31:33;;;;;;;2.40;1.13;;;;;;;;;;5013333;28;20042;-81
2022/06/16 01:34:04;;;;;;;2.10;1.20;;;;;;;;;;5020299;28;20075;-82
2022/06/16 01:36:33;;;;;;;4.18;1.33;;;;;;;;;;5033715;28;20037;-81
2022/06/16 01:39:04;;;;;;;3.30;1.60;;;;;;;;;;5022110;28;22459;-82
2022/06/16 01:41:48;;;;;;;2.63;1.25;;;;;;;;;;5023422;28;20409;-82
2022/06/16 01:44:23;;;;;;;2.95;1.35;;;;;;;;;;5018222;28;20366;-81
2022/06/16 01:46:54;;;;;;;4.20;1.30;;;;;;;;;;4991593;28;20034;-81
2022/06/16 01:49:33;;;;;;;2.67;1.15;;;;;;;;;;5007517;28;20450;-81
2022/06/16 01:52:05;;;;;;;2.58;1.20;;;;;;;;;;5006407;28;20034;-81
2022/06/16 01:54:40;;;;;;;3.83;1.60;;;;;;;;;;4992684;28;20045;-81
2022/06/16 01:57:30;;;;;;;2.72;1.50;;;;;;;;;;5005527;28;20029;-80
2022/06/16 02:00:08;;;;;;;3.50;1.50;;;;;;;;;;5027926;28;20124;-81
2022/06/16 02:02:34;;;;;;;;;;;;;;;;;;5009277;28;20138;-81
2022/06/16 02:04:59;;;;;;;2.25;1.20;;;;;;;;;;5025657;28;19966;-81
2022/06/16 02:07:35;;;;;;;2.60;1.40;;;;;;;;;;5033195;28;20040;-81
2022/06/16 02:10:07;;;;;;;2.25;1.20;;;;;;;;;;5003392;28;20044;-81
2022/06/16 02:15:34;;;;;;;5.00;1.40;;;;;;;;;;5024247;28;20049;-81
2022/06/16 02:18:01;;;;;;;2.67;1.33;;;;;;;;;;5029974;28;20037;-80
2022/06/16 02:20:34;;;;;;;2.33;1.30;;;;;;;;;;5010796;28;20116;-80
2022/06/16 02:22:59;;;;;;;2.90;1.30;;;;;;;;;;5001249;28;20029;-81
2022/06/16 02:25:24;;;;;;;2.65;1.30;;;;;;;;;;5009808;28;20036;-80
2022/06/16 02:27:50;;;;;;;2.45;1.23;;;;;;;;;;5010059;28;20037;-80
2022/06/16 02:30:15;;;;;;;3.92;1.45;;;;;;;;;;5016607;28;20037;-80
2022/06/16 02:33:02;;;;;;;2.80;1.50;;;;;;;;;;5021562;28;20115;-81
2022/06/16 02:35:31;;;;;;;4.72;1.75;;;;;;;;;;5010440;28;20045;-81
2022/06/16 02:37:56;;;;;;;3.00;1.45;;;;;;;;;;5015484;28;20029;-80
2022/06/16 02:40:59;;;;;;;2.67;1.40;;;;;;;;;;5024969;28;20515;-80
2022/06/16 02:43:27;;;;;;;2.58;1.35;;;;;;;;;;5020701;28;20044;-80
2022/06/16 02:45:59;;;;;;;3.38;1.90;;;;;;;;;;5015469;28;20041;-80
2022/06/16 02:48:47;;;;;;;2.78;1.40;;;;;;;;;;5007395;28;20111;-80
2022/06/16 02:52:01;;;;;;;3.60;1.60;;;;;;;;;;4950707;28;20893;-80
2022/06/16 02:55:02;;;;;;;5.57;1.75;;;;;;;;;;4974711;28;20439;-80
2022/06/16 02:57:42;;;;;;;3.10;1.50;;;;;;;;;;5027652;28;20033;-80
2022/06/16 03:00:12;;;;;;;2.92;1.40;;;;;;;;;;5026310;28;20038;-79
2022/06/16 03:02:39;;;;;;;3.13;1.63;;;;;;;;;;5011340;28;20037;-80
2022/06/16 03:05:05;;;;;;;3.78;1.80;;;;;;;;;;5000708;28;20060;-80
2022/06/16 03:07:33;;;;;;;3.60;1.40;;;;;;;;;;5009634;28;20066;-81
2022/06/16 03:09:59;;;;;;;2.83;1.55;;;;;;;;;;5006355;28;20041;-81
2022/06/16 03:12:26;;;;;;;3.75;2.08;;;;;;;;;;5000846;28;20405;-82
2022/06/16 03:14:52;;;;;;;2.63;1.42;;;;;;;;;;5007191;28;20401;-82
2022/06/16 03:17:17;;;;;;;2.75;1.45;;;;;;;;;;4999680;28;20033;-82
2022/06/16 03:19:42;;;;;;;2.72;1.60;;;;;;;;;;5006084;28;20096;-82
2022/06/16 03:22:08;;;;;;;4.10;1.73;;;;;;;;;;4999833;28;20153;-80
2022/06/16 03:24:33;;;;;;;4.57;1.70;;;;;;;;;;4999454;28;20032;-81
2022/06/16 03:26:59;;;;;;;3.70;1.73;;;;;;;;;;5022792;28;20467;-81
2022/06/16 03:29:24;;;;;;;2.95;1.70;;;;;;;;;;5006116;28;20112;-80
2022/06/16 03:31:49;;;;;;;6.18;1.58;;;;;;;;;;5012619;28;20800;-80
2022/06/16 03:34:15;;;;;;;2.47;1.40;;;;;;;;;;5006413;28;20048;-81
2022/06/16 03:36:41;;;;;;;2.75;1.50;;;;;;;;;;5000252;28;20034;-81
2022/06/16 03:39:06;;;;;;;2.97;1.63;;;;;;;;;;5015671;28;20029;-80
2022/06/16 03:41:33;;;;;;;2.83;1.38;;;;;;;;;;5012954;28;20076;-80
2022/06/16 03:43:59;;;;;;;2.67;1.38;;;;;;;;;;5014620;28;20455;-81
2022/06/16 03:46:25;;;;;;;2.70;1.30;;;;;;;;;;5017946;28;20116;-80
2022/06/16 03:48:50;;;;;;;4.20;1.73;;;;;;;;;;5023052;28;20034;-80
2022/06/16 03:51:17;;;;;;;2.97;1.40;;;;;;;;;;5002527;28;20065;-81
2022/06/16 03:53:42;;;;;;;3.50;1.70;;;;;;;;;;5019129;28;20139;-82
2022/06/16 03:56:09;;;;;;;2.50;1.40;;;;;;;;;;5017730;28;20034;-80
2022/06/16 03:58:34;;;;;;;4.35;1.70;;;;;;;;;;5016867;28;20081;-80
2022/06/16 04:01:00;;;;;;;2.90;1.48;;;;;;;;;;5006241;28;20862;-79
2022/06/16 04:06:11;;;;;;;3.05;1.50;;;;;;;;;;5023500;28;20056;-81
2022/06/16 04:08:37;;;;;;;3.45;1.40;;;;;;;;;;5009765;28;20045;-80
2022/06/16 04:11:26;;;;;;;2.30;1.20;;;;;;;;;;5014611;28;20920;-80
2022/06/16 04:13:48;;;;;;;2.95;1.30;;;;;;;;;;5029083;28;20037;-80
2022/06/16 04:16:13;;;;;;;2.83;1.40;;;;;;;;;;5017428;28;20032;-81
2022/06/16 04:18:39;;;;;;;2.60;1.58;;;;;;;;;;5025091;28;20507;-82
2022/06/16 04:21:04;;;;;;;3.00;1.58;;;;;;;;;;5012655;28;20582;-81
2022/06/16 04:23:29;;;;;;;4.03;1.60;;;;;;;;;;5013280;28;20040;-82
2022/06/16 04:25:55;;;;;;;2.90;1.50;;;;;;;;;;5011226;28;20115;-80
2022/06/16 04:28:20;;;;;;;3.20;1.52;;;;;;;;;;5021708;28;20094;-80
2022/06/16 04:30:48;;;;;;;3.20;1.52;;;;;;;;;;5015173;28;20033;-81
2022/06/16 04:33:13;;;;;;;3.83;1.70;;;;;;;;;;5025071;28;20104;-81
2022/06/16 04:35:38;;;;;;;2.95;1.70;;;;;;;;;;5021768;28;20033;-80
2022/06/16 04:38:04;;;;;;;2.78;1.50;;;;;;;;;;5029030;28;20400;-80
2022/06/16 04:40:29;;;;;;;3.03;1.52;;;;;;;;;;5023768;28;20044;-81
2022/06/16 04:42:55;;;;;;;3.95;1.80;;;;;;;;;;5023416;28;20187;-80
2022/06/16 04:45:20;;;;;;;3.08;1.40;;;;;;;;;;5020886;28;20116;-80
2022/06/16 04:47:45;;;;;;;4.85;1.90;;;;;;;;;;5001142;28;20565;-80
2022/06/16 04:50:14;;;;;;;3.65;1.60;;;;;;;;;;5008520;28;20145;-80
2022/06/16 04:52:39;;;;;;;2.75;1.40;;;;;;;;;;5002889;28;20724;-80
2022/06/16 04:55:05;;;;;;;3.85;1.58;;;;;;;;;;5012935;28;20123;-80
2022/06/16 04:57:32;;;;;;;3.88;1.50;;;;;;;;;;5010344;28;20052;-81
2022/06/16 04:59:58;;;;;;;2.83;1.42;;;;;;;;;;5012161;28;20044;-80
2022/06/16 05:02:23;;;;;;;2.97;1.58;;;;;;;;;;5012918;28;20377;-80
2022/06/16 05:04:49;;;;;;;4.88;2.03;;;;;;;;;;5026682;28;20060;-82
2022/06/16 05:07:14;;;;;;;3.35;1.88;;;;;;;;;;5004562;28;20389;-80
2022/06/16 05:09:39;;;;;;;4.43;1.70;;;;;;;;;;5010658;28;20049;-80
2022/06/16 05:12:05;;;;;;;3.30;1.52;;;;;;;;;;5027153;28;20037;-79
2022/06/16 05:14:30;;;;;;;2.53;1.50;;;;;;;;;;4999988;28;20358;-79
2022/06/16 05:16:56;;;;;;;3.08;1.30;;;;;;;;;;5006203;28;20121;-80
2022/06/16 05:19:21;;;;;;;3.10;1.40;;;;;;;;;;5023478;28;20149;-80
2022/06/16 05:21:47;;;;;;;4.07;1.80;;;;;;;;;;5023833;28;20043;-80
2022/06/16 05:24:12;;;;;;;3.22;1.42;;;;;;;;;;5011234;28;20029;-80
2022/06/16 05:26:40;;;;;;;3.72;1.50;;;;;;;;;;5020029;28;20106;-80
2022/06/16 05:29:06;;;;;;;3.10;1.50;;;;;;;;;;5028558;28;20037;-80
2022/06/16 05:31:31;;;;;;;2.85;1.33;;;;;;;;;;5022197;28;20039;-83
2022/06/16 05:33:57;;;;;;;2.75;1.30;;;;;;;;;;5016647;28;20033;-79
2022/06/16 05:36:23;;;;;;;3.08;1.27;;;;;;;;;;5010536;28;20029;-81
2022/06/16 05:38:48;;;;;;;3.03;1.60;;;;;;;;;;5017051;28;20488;-81
2022/06/16 05:41:16;;;;;;;2.60;1.20;;;;;;;;;;4993679;28;20023;-80
2022/06/16 05:43:42;;;;;;;2.78;1.17;;;;;;;;;;5016695;28;20489;-81
2022/06/16 05:46:14;;;;;;;3.00;1.23;;;;;;;;;;5012642;28;20045;-80
2022/06/16 05:48:39;;;;;;;4.43;1.35;;;;;;;;;;4983432;28;20060;-82
2022/06/16 05:51:08;;;;;;;3.40;1.30;;;;;;;;;;5005794;28;20033;-81
2022/06/16 05:53:34;;;;;;;2.60;1.27;;;;;;;;;;5021843;28;21015;-81
2022/06/16 05:56:00;;;;;;;2.78;1.42;;;;;;;;;;5019992;28;20477;-82
2022/06/16 05:58:25;;;;;;;2.30;1.20;;;;;;;;;;5011094;28;20083;-81
2022/06/16 06:00:50;;;;;;;4.63;1.70;;;;;;;;;;5008675;28;20459;-81
2022/06/16 06:03:37;;;;;;;3.30;1.40;;;;;;;;;;5010036;28;20041;-81
2022/06/16 06:06:03;;;;;;;3.25;1.35;;;;;;;;;;4924421;28;20043;-82
2022/06/16 06:17:07;;;;;;;3.27;1.43;;;;;;;;;;4958925;28;20486;-79
2022/06/16 06:19:32;;;;;;;2.83;1.30;;;;;;;;;;4932673;28;20073;-80
2022/06/16 06:22:18;;;;;;;3.25;1.27;;;;;;;;;;4941849;28;20062;-80
2022/06/16 06:24:53;;;;;;;3.75;1.45;;;;;;;;;;4948251;28;20039;-80
2022/06/16 06:27:35;;;;;;;2.40;1.10;;;;;;;;;;4925320;28;20100;-80
2022/06/16 06:30:26;;;;;;;2.65;1.30;;;;;;;;;;4931489;28;21154;-80
2022/06/16 06:32:52;;;;;;;3.00;1.20;;;;;;;;;;4951300;28;20039;-80
2022/06/16 06:35:19;;;;;;;3.05;1.33;;;;;;;;;;4940383;28;20751;-80
2022/06/16 06:37:45;;;;;;;3.72;1.40;;;;;;;;;;4942467;28;20034;-81
2022/06/16 06:40:19;;;;;;;3.45;1.42;;;;;;;;;;4946439;28;20054;-81
2022/06/16 06:42:44;;;;;;;3.70;1.10;;;;;;;;;;4947182;28;20080;-81
2022/06/16 06:45:10;;;;;;;2.70;1.13;;;;;;;;;;5003301;28;20061;-80
2022/06/16 06:47:35;;;;;;;3.92;1.60;;;;;;;;;;5008491;28;20037;-80
2022/06/16 06:50:01;;;;;;;3.25;1.27;;;;;;;;;;5007750;28;20053;-81
2022/06/16 06:52:27;;;;;;;2.92;1.10;;;;;;;;;;5000350;28;20504;-80
2022/06/16 06:54:53;;;;;;;3.30;1.27;;;;;;;;;;5020554;28;20575;-79
2022/06/16 06:57:24;;;;;;;2.75;1.10;;;;;;;;;;5020009;28;20100;-80
2022/06/16 06:59:50;;;;;;;3.50;1.10;;;;;;;;;;5020131;28;20374;-80
2022/06/16 07:02:16;;;;;;;2.95;1.48;;;;;;;;;;5014790;28;20047;-81
2022/06/16 07:04:42;;;;;;;2.28;1.23;;;;;;;;;;5013161;28;20034;-81
2022/06/16 07:07:13;;;;;;;2.67;1.08;;;;;;;;;;5008333;28;20088;-80
2022/06/16 07:09:39;;;;;;;2.42;1.00;;;;;;;;;;5034441;28;20081;-81
2022/06/16 07:12:25;;;;;;;2.42;1.15;;;;;;;;;;5025583;28;20357;-80
2022/06/16 07:14:50;;;;;;;2.90;1.20;;;;;;;;;;4997840;28;20038;-80
2022/06/16 07:17:18;;;;;;;2.33;1.20;;;;;;;;;;4977292;28;20421;-80
2022/06/16 07:19:44;;;;;;;3.15;1.10;;;;;;;;;;4980895;28;20049;-80
2022/06/16 07:22:10;;;;;;;3.75;1.20;;;;;;;;;;4998423;28;20034;-80
2022/06/16 07:24:35;;;;;;;2.20;1.00;;;;;;;;;;4983219;28;20489;-79
2022/06/16 07:27:01;;;;;;;3.50;0.98;;;;;;;;;;4988259;28;20038;-79
2022/06/16 07:29:27;;;;;;;3.47;0.88;;;;;;;;;;4997323;28;20100;-79
2022/06/16 07:31:52;;;;;;;3.05;1.35;;;;;;;;;;4968093;28;20077;-80
2022/06/16 07:34:18;;;;;;;5.18;1.63;;;;;;;;;;4960795;28;20046;-80
2022/06/16 07:36:43;;;;;;;2.17;1.00;;;;;;;;;;4960322;28;20120;-79
2022/06/16 07:39:09;;;;;;;2.22;1.10;;;;;;;;;;4983208;28;20077;-78
2022/06/16 07:41:34;;;;;;;2.65;1.02;;;;;;;;;;4971804;28;20497;-79
2022/06/16 07:44:06;;;;;;;8.18;1.60;;;;;;;;;;4972870;28;20053;-79
2022/06/16 07:46:31;;;;;;;3.13;1.35;;;;;;;;;;4966266;28;20080;-79
2022/06/16 07:48:57;;;;;;;2.33;1.17;;;;;;;;;;4994863;28;20054;-79
2022/06/16 07:51:22;;;;;;;4.22;0.98;;;;;;;;;;5004586;28;20404;-80
2022/06/16 07:53:48;;;;;;;6.10;1.27;;;;;;;;;;5000027;28;20068;-80
2022/06/16 07:56:13;;;;;;;3.22;1.00;;;;;;;;;;5023913;28;20129;-80
2022/06/16 07:58:39;;;;;;;2.58;0.98;;;;;;;;;;5010145;28;20051;-80
2022/06/16 08:01:07;;;;;;;3.05;1.33;;;;;;;;;;5016072;28;20528;-80
2022/06/16 08:03:35;;;;;;;1.98;0.70;;;;;;;;;;5025255;28;20044;-80
2022/06/16 08:06:05;;;;;;;2.92;1.02;;;;;;;;;;5006645;28;20045;-81
2022/06/16 08:08:30;;;;;;;1.55;0.70;;;;;;;;;;5000142;28;20037;-82
2022/06/16 08:10:55;;;;;;;3.38;0.98;;;;;;;;;;5015154;28;20091;-81
2022/06/16 08:13:22;;;;;;;1.67;0.70;;;;;;;;;;4989151;28;20113;-80
2022/06/16 08:15:51;;;;;;;3.88;1.00;;;;;;;;;;5003515;28;20037;-81
2022/06/16 08:18:22;;;;;;;2.17;0.90;;;;;;;;;;5016291;28;20029;-82
2022/06/16 08:20:49;;;;;;;2.05;1.00;;;;;;;;;;5017175;28;20455;-83
2022/06/16 08:23:15;;;;;;;2.17;1.08;;;;;;;;;;4996008;28;20041;-83
2022/06/16 08:25:42;;;;;;;2.40;0.80;;;;;;;;;;5004378;28;20043;-80
2022/06/16 08:28:08;;;;;;;;;;;;;;;;;;5016376;28;20104;-82
2022/06/16 08:30:34;;;;;;;2.33;0.90;;;;;;;;;;5004627;28;19959;-82
2022/06/16 08:32:59;;;;;;;2.17;0.88;;;;;;;;;;5013783;28;20029;-81
2022/06/16 08:35:25;;;;;;;2.72;0.82;;;;;;;;;;5004140;28;20551;-82
2022/06/16 08:37:50;;;;;;;2.42;0.85;;;;;;;;;;5025349;28;20546;-82
2022/06/16 08:40:17;;;;;;;2.65;1.00;;;;;;;;;;5019587;28;20037;-81
2022/06/16 08:42:50;;;;;;;1.75;0.77;;;;;;;;;;5003071;28;20425;-82
2022/06/16 08:45:27;;;;;;;2.00;0.80;;;;;;;;;;5006420;28;20034;-83
2022/06/16 08:48:05;;;;;;;1.50;0.70;;;;;;;;;;5034413;28;20037;-82
2022/06/16 08:50:47;;;;;;;2.08;0.80;;;;;;;;;;5033945;28;20504;-82
2022/06/16 08:53:24;;;;;;;2.85;0.90;;;;;;;;;;5020931;28;20430;-81
2022/06/16 08:56:01;;;;;;;3.00;0.80;;;;;;;;;;5015002;28;20044;-80
2022/06/16 08:58:32;;;;;;;;;;;;;;;;;;5002100;28;20428;-81
2022/06/16 09:01:05;;;;;;;3.92;0.95;;;;;;;;;;5032833;28;20376;-82
2022/06/16 09:03:33;;;;;;;1.67;0.70;;;;;;;;;;5022027;28;20079;-83
2022/06/16 09:06:12;;;;;;;2.70;0.80;;;;;;;;;;5017666;28;20516;-84
2022/06/16 09:08:37;;;;;;;1.80;0.85;;;;;;;;;;5027379;28;20040;-83
2022/06/16 09:11:33;;;;;;;1.90;0.80;;;;;;;;;;5036031;28;20041;-83
2022/06/16 09:14:14;;;;;;;3.20;1.02;;;;;;;;;;5027847;28;20037;-85
2022/06/16 09:16:55;;;;;;;2.60;1.02;;;;;;;;;;5001590;28;20045;-83
2022/06/16 09:19:34;;;;;;;2.65;0.90;;;;;;;;;;5002357;28;20121;-82
2022/06/16 09:22:22;;;;;;;1.95;0.75;;;;;;;;;;5019581;28;20113;-82
2022/06/16 09:25:29;;;;;;;1.25;0.57;;;;;;;;;;5005159;28;20045;-82
2022/06/16 09:27:59;;;;;;;2.90;0.85;;;;;;;;;;4970113;28;20045;-83
2022/06/16 09:30:27;;;;;;;1.58;0.60;;;;;;;;;;5005482;28;20785;-84
2022/06/16 09:33:00;;;;;;;2.40;0.80;;;;;;;;;;5011928;28;20528;-86
2022/06/16 09:35:33;;;;;;;1.15;0.47;;;;;;;;;;5022310;28;20624;-87
2022/06/16 09:38:08;;;;;;;2.65;0.70;;;;;;;;;;5007450;28;20041;-86
2022/06/16 09:40:52;;;;;;;5.75;1.20;;;;;;;;;;5004555;28;20092;-86
2022/06/16 09:43:22;;;;;;;1.73;0.80;;;;;;;;;;5013891;28;20044;-81
2022/06/16 09:45:53;;;;;;;2.30;0.80;;;;;;;;;;5002959;28;20033;-82
2022/06/16 09:48:31;;;;;;;2.25;0.70;;;;;;;;;;5003517;28;20037;-82
2022/06/16 09:51:22;;;;;;;2.50;0.95;;;;;;;;;;5019101;28;20084;-82
2022/06/16 09:53:55;;;;;;;1.63;0.82;;;;;;;;;;5016000;28;20131;-82
2022/06/16 09:56:38;;;;;;;1.88;0.80;;;;;;;;;;5017494;28;20440;-83
2022/06/16 09:59:08;;;;;;;1.33;0.60;;;;;;;;;;5018431;28;20061;-81
2022/06/16 10:01:41;;;;;;;1.70;0.77;;;;;;;;;;5020111;28;20120;-83
2022/06/16 10:04:08;;;;;;;2.97;0.60;;;;;;;;;;5018041;28;20396;-82
2022/06/16 10:07:01;;;;;;;2.10;0.68;;;;;;;;;;5002460;28;20441;-84
2022/06/16 10:09:35;;;;;;;3.25;1.00;;;;;;;;;;5013780;28;20091;-81
2022/06/16 10:12:12;;;;;;;1.52;0.70;;;;;;;;;;5030238;28;20031;-81
2022/06/16 10:14:53;;;;;;;1.75;0.60;;;;;;;;;;5002306;28;20216;-81
2022/06/16 10:17:21;;;;;;;2.50;0.80;;;;;;;;;;5022124;28;20040;-81
2022/06/16 10:19:47;;;;;;;1.30;0.60;;;;;;;;;;5018064;28;20509;-81
2022/06/16 10:22:16;;;;;;;1.60;0.60;;;;;;;;;;5002083;28;20033;-80
2022/06/16 10:25:21;;;;;;;2.28;0.98;;;;;;;;;;5020635;28;20272;-82
2022/06/16 10:27:57;;;;;;;1.23;0.60;;;;;;;;;;5016705;28;20442;-81
2022/06/16 10:30:25;;;;;;;1.58;0.65;;;;;;;;;;5016215;28;20065;-81
2022/06/16 10:33:01;;;;;;;1.55;0.70;;;;;;;;;;5022492;28;20044;-81
2022/06/16 10:35:27;;;;;;;2.17;1.00;;;;;;;;;;5008406;28;20139;-85
2022/06/16 10:37:53;;;;;;;2.53;0.73;;;;;;;;;;5003432;28;20128;-83
2022/06/16 10:40:27;;;;;;;2.00;0.80;;;;;;;;;;4980918;28;20497;-82
2022/06/16 10:42:59;;;;;;;1.70;0.75;;;;;;;;;;5018249;28;20046;-80
2022/06/16 10:45:34;;;;;;;2.03;0.80;;;;;;;;;;5023686;28;20048;-81
2022/06/16 10:48:03;;;;;;;1.50;0.70;;;;;;;;;;5004163;28;20039;-81
2022/06/16 10:50:33;;;;;;;1.75;0.77;;;;;;;;;;5005415;28;20124;-81
2022/06/16 10:53:25;;;;;;;2.17;0.77;;;;;;;;;;5026562;28;20522;-82
2022/06/16 10:55:56;;;;;;;2.50;1.13;;;;;;;;;;4921643;29;20433;-83
2022/06/16 10:58:27;;;;;;;2.58;0.90;;;;;;;;;;4903132;29;20134;-83
2022/06/16 11:01:08;;;;;;;4.55;1.00;;;;;;;;;;4897662;29;20043;-83
2022/06/16 11:03:42;;;;;;;1.90;0.70;;;;;;;;;;4901422;29;20058;-82
2022/06/16 11:06:07;;;;;;;2.97;0.90;;;;;;;;;;4899191;29;20043;-83
2022/06/16 11:08:38;;;;;;;2.67;0.88;;;;;;;;;;4923380;28;20423;-82
2022/06/16 11:11:05;;;;;;;1.90;0.70;;;;;;;;;;4921977;28;20210;-83
2022/06/16 11:13:35;;;;;;;3.78;1.00;;;;;;;;;;4939643;28;20062;-83
2022/06/16 11:16:06;;;;;;;2.20;1.00;;;;;;;;;;4940757;28;20039;-83
2022/06/16 11:18:33;;;;;;;2.15;1.00;;;;;;;;;;4915156;28;20039;-82
2022/06/16 11:21:00;;;;;;;2.65;0.85;;;;;;;;;;4926535;28;20046;-84
2022/06/16 11:23:34;;;;;;;2.78;0.95;;;;;;;;;;4918913;28;20035;-82
2022/06/16 11:26:06;;;;;;;2.60;0.82;;;;;;;;;;4922189;28;20114;-82
2022/06/16 11:28:41;;;;;;;5.32;0.85;;;;;;;;;;4940487;28;20475;-83
2022/06/16 11:31:07;;;;;;;2.50;0.85;;;;;;;;;;4923340;28;20042;-83
2022/06/16 11:36:33;;;;;;;2.42;0.88;;;;;;;;;;5017947;28;20460;-84
2022/06/16 11:39:15;;;;;;;3.72;1.00;;;;;;;;;;5034517;28;20033;-83
2022/06/16 11:41:46;;;;;;;2.22;0.80;;;;;;;;;;5011957;28;20037;-83
2022/06/16 11:44:36;;;;;;;2.83;1.00;;;;;;;;;;5022026;28;20041;-83
2022/06/16 11:47:16;;;;;;;2.17;0.70;;;;;;;;;;5022998;28;20041;-82
2022/06/16 11:49:47;;;;;;;2.03;0.70;;;;;;;;;;5016613;28;20134;-83
2022/06/16 11:52:20;;;;;;;2.03;0.70;;;;;;;;;;5018103;28;20048;-83
2022/06/16 11:55:00;;;;;;;1.88;0.93;;;;;;;;;;5017928;28;20033;-83
2022/06/16 11:58:04;;;;;;;1.60;0.60;;;;;;;;;;5015988;28;20041;-83
2022/06/16 12:00:36;;;;;;;2.13;0.90;;;;;;;;;;4986674;28;20760;-83
2022/06/16 12:03:10;;;;;;;2.25;0.90;;;;;;;;;;5022063;28;20618;-81
2022/06/16 12:05:48;;;;;;;1.95;0.80;;;;;;;;;;5032129;28;20045;-83
2022/06/16 12:08:16;;;;;;;2.53;0.75;;;;;;;;;;5000087;28;20668;-82
2022/06/16 12:10:48;;;;;;;2.97;0.90;;;;;;;;;;5022647;28;20043;-84
2022/06/16 12:13:34;;;;;;;2.33;0.77;;;;;;;;;;5015150;28;20060;-84
2022/06/16 12:16:07;;;;;;;3.38;0.60;;;;;;;;;;5015254;28;20060;-83
2022/06/16 12:19:00;;;;;;;2.00;0.80;;;;;;;;;;5017213;28;20194;-84
2022/06/16 12:21:34;;;;;;;2.67;0.88;;;;;;;;;;5008381;28;20172;-83
2022/06/16 12:24:25;;;;;;;1.90;0.90;;;;;;;;;;5019206;28;20060;-82
2022/06/16 12:27:08;;;;;;;2.97;0.80;;;;;;;;;;5003129;28;20124;-83
2022/06/16 12:29:57;;;;;;;3.05;1.00;;;;;;;;;;5003095;28;20504;-83
2022/06/16 12:32:22;;;;;;;2.72;0.77;;;;;;;;;;5001516;28;20042;-84
2022/06/16 12:35:00;;;;;;;1.80;0.90;;;;;;;;;;5034260;28;20053;-83
2022/06/16 12:37:26;;;;;;;;;;;;;;;;;;5035672;28;20268;-83
2022/06/16 12:39:56;;;;;;;2.45;0.73;;;;;;;;;;5020750;28;19924;-84
2022/06/16 12:42:23;;;;;;;3.00;0.88;;;;;;;;;;5014447;28;20038;-83
2022/06/16 12:45:11;;;;;;;3.45;1.00;;;;;;;;;;5025185;28;20045;-84
2022/06/16 12:47:52;;;;;;;2.42;1.00;;;;;;;;;;5021781;28;20034;-83
2022/06/16 12:50:56;;;;;;;3.08;1.05;;;;;;;;;;5012670;28;20091;-83
2022/06/16 12:53:33;;;;;;;2.65;0.85;;;;;;;;;;4921571;29;20175;-83
2022/06/16 12:56:29;;;;;;;1.88;0.80;;;;;;;;;;4892842;29;20918;-84
2022/06/16 12:59:17;;;;;;;2.40;1.13;;;;;;;;;;4898234;29;20389;-83
2022/06/16 13:01:47;;;;;;;1.92;0.77;;;;;;;;;;4882648;29;20372;-80
2022/06/16 13:04:15;;;;;;;1.98;0.90;;;;;;;;;;4893332;29;20377;-83
2022/06/16 13:06:44;;;;;;;2.00;0.90;;;;;;;;;;4899884;29;20126;-83
2022/06/16 13:09:14;;;;;;;1.77;0.80;;;;;;;;;;4884417;29;20100;-83
2022/06/16 13:11:49;;;;;;;2.47;1.10;;;;;;;;;;4925068;28;20515;-83
2022/06/16 13:14:46;;;;;;;1.33;0.75;;;;;;;;;;4931251;28;20069;-83
2022/06/16 13:17:13;;;;;;;2.03;0.90;;;;;;;;;;4938976;28;20039;-84
2022/06/16 13:19:40;;;;;;;2.90;1.00;;;;;;;;;;4914108;28;20559;-83
2022/06/16 13:22:07;;;;;;;2.17;0.80;;;;;;;;;;4937382;28;20606;-83
2022/06/16 13:24:40;;;;;;;2.00;0.80;;;;;;;;;;4922154;28;20044;-83
2022/06/16 13:27:11;;;;;;;3.90;1.20;;;;;;;;;;4914030;28;20150;-83
2022/06/16 13:29:59;;;;;;;2.10;0.73;;;;;;;;;;4954026;28;20132;-84
2022/06/16 13:33:00;;;;;;;1.88;0.90;;;;;;;;;;5008112;28;20025;-82
2022/06/16 13:35:34;;;;;;;2.38;0.90;;;;;;;;;;5011562;28;20034;-84
2022/06/16 13:38:02;;;;;;;2.08;0.80;;;;;;;;;;5020574;28;20060;-82
2022/06/16 13:40:28;;;;;;;2.40;0.85;;;;;;;;;;5036257;28;20048;-82
2022/06/16 13:42:56;;;;;;;2.80;1.00;;;;;;;;;;5014957;28;20040;-82
2022/06/16 13:45:28;;;;;;;2.08;0.90;;;;;;;;;;5033560;28;20037;-82
2022/06/16 13:48:05;;;;;;;1.80;0.70;;;;;;;;;;5033949;28;20044;-81
2022/06/16 13:50:49;;;;;;;3.35;0.82;;;;;;;;;;5018917;28;20051;-82
2022/06/16 13:53:46;;;;;;;2.88;1.00;;;;;;;;;;5020484;28;20038;-82
2022/06/16 13:56:21;;;;;;;2.10;0.80;;;;;;;;;;5018474;28;20057;-82
2022/06/16 13:58:52;;;;;;;3.35;1.02;;;;;;;;;;5020618;28;20127;-81
2022/06/16 14:01:20;;;;;;;1.67;0.70;;;;;;;;;;5035689;28;20128;-81
2022/06/16 14:04:15;;;;;;;1.65;0.70;;;;;;;;;;5023719;28;20041;-82
2022/06/16 14:06:49;;;;;;;1.38;0.73;;;;;;;;;;5020333;28;20036;-83
2022/06/16 14:09:27;;;;;;;1.35;0.70;;;;;;;;;;5011224;28;20038;-85
2022/06/16 14:11:59;;;;;;;2.35;1.02;;;;;;;;;;5019490;28;20034;-85
2022/06/16 14:14:25;;;;;;;1.63;0.70;;;;;;;;;;5024664;28;20570;-85
2022/06/16 14:16:53;;;;;;;2.60;0.85;;;;;;;;;;5033711;28;20037;-86
2022/06/16 14:19:18;;;;;;;1.45;0.82;;;;;;;;;;5027224;28;20033;-84
2022/06/16 14:21:49;;;;;;;4.13;0.80;;;;;;;;;;5026019;28;20400;-84
2022/06/16 14:24:26;;;;;;;2.22;0.90;;;;;;;;;;5026086;28;20044;-84
2022/06/16 14:26:52;;;;;;;;;;;;;;;;;;5013836;28;20053;-84
2022/06/16 14:29:22;;;;;;;4.22;0.88;;;;;;;;;;5010174;28;19966;-84
2022/06/16 14:31:53;;;;;;;1.52;0.70;;;;;;;;;;5001444;28;20037;-84
2022/06/16 14:34:25;;;;;;;1.73;0.55;;;;;;;;;;5020038;28;20045;-83
2022/06/16 14:36:58;;;;;;;1.85;0.70;;;;;;;;;;5004411;28;20084;-85
2022/06/16 14:39:23;;;;;;;1.10;0.50;;;;;;;;;;5004527;28;20032;-84
2022/06/16 14:41:54;;;;;;;1.98;0.90;;;;;;;;;;5021216;28;20090;-83
2022/06/16 14:44:27;;;;;;;1.77;0.60;;;;;;;;;;5017461;28;20052;-84
2022/06/16 14:47:06;;;;;;;1.50;0.70;;;;;;;;;;5004527;28;20032;-84
2022/06/16 14:49:41;;;;;;;1.92;0.82;;;;;;;;;;5036854;28;20045;-85
2022/06/16 14:52:07;;;;;;;1.38;0.60;;;;;;;;;;5020514;28;20040;-85
2022/06/16 14:54:39;;;;;;;1.92;0.70;;;;;;;;;;5002326;28;20048;-83
2022/06/16 14:57:06;;;;;;;2.53;0.80;;;;;;;;;;5018520;28;20094;-85
2022/06/16 14:59:37;;;;;;;2.28;0.80;;;;;;;;;;5004879;28;20052;-85
2022/06/16 15:02:06;;;;;;;1.55;0.63;;;;;;;;;;5018386;28;20489;-84
2022/06/16 15:04:32;;;;;;;1.13;0.60;;;;;;;;;;5022219;28;20043;-84
2022/06/16 15:06:58;;;;;;;2.63;0.65;;;;;;;;;;5009937;28;20036;-83
2022/06/16 15:09:29;;;;;;;1.70;0.60;;;;;;;;;;5001537;28;20068;-85
2022/06/16 15:11:57;;;;;;;2.42;0.73;;;;;;;;;;5002102;28;20029;-85
2022/06/16 15:14:24;;;;;;;2.33;0.88;;;;;;;;;;5006425;28;20084;-84
2022/06/16 15:19:39;;;;;;;1.83;0.80;;;;;;;;;;5026285;28;20554;-84
2022/06/16 15:22:05;;;;;;;2.03;0.68;;;;;;;;;;4999394;28;20049;-83
2022/06/16 15:24:52;;;;;;;2.10;0.60;;;;;;;;;;5008851;28;20604;-86
2022/06/16 15:27:26;;;;;;;1.47;0.53;;;;;;;;;;5024418;28;20041;-85
2022/06/16 15:29:52;;;;;;;1.23;0.40;;;;;;;;;;5018946;28;20037;-85
2022/06/16 15:38:01;;;;;;;1.33;0.50;;;;;;;;;;5010629;28;20044;-82
2022/06/16 15:40:31;;;;;;;2.55;0.88;;;;;;;;;;5014984;28;20045;-81
2022/06/16 15:42:56;;;;;;;1.25;0.60;;;;;;;;;;5003666;28;20038;-81